createdAt,value
2022-08-16T00:02:12.805Z,9.98
2022-08-16T00:05:16.730Z,9.63
2022-08-16T00:08:36.811Z,9.60
2022-08-16T00:11:41.140Z,9.85
2022-08-16T00:14:45.036Z,10.27
2022-08-16T00:17:57.065Z,12.77
2022-08-16T00:21:00.614Z,11.52
2022-08-16T00:24:06.281Z,11.65
2022-08-16T00:27:14.236Z,11.35
2022-08-16T00:30:28.734Z,12.30
2022-08-16T00:33:31.874Z,12.75
2022-08-16T00:36:34.491Z,11.90
2022-08-16T00:39:36.979Z,12.25
2022-08-16T00:42:41.573Z,12.75
2022-08-16T00:45:57.929Z,11.13
2022-08-16T00:49:02.928Z,11.07
2022-08-16T00:52:06.217Z,12.88
2022-08-16T00:55:37.973Z,12.70
2022-08-16T00:58:44.379Z,12.88
2022-08-16T01:01:48.152Z,14.23
2022-08-16T01:05:10.434Z,15.05
2022-08-16T01:08:35.737Z,14.82
2022-08-16T01:11:53.695Z,15.90
2022-08-16T01:15:00.260Z,16.77
2022-08-16T01:18:08.349Z,15.10
2022-08-16T01:21:39.772Z,15.82
2022-08-16T01:28:01.943Z,14.20
2022-08-16T01:31:05.348Z,15.30
2022-08-16T01:34:07.926Z,16.23
2022-08-16T01:37:25.937Z,16.77
2022-08-16T01:40:31.443Z,15.98
2022-08-16T01:43:36.626Z,18.15
2022-08-16T01:46:43.132Z,15.63
2022-08-16T01:50:40.920Z,14.98
2022-08-16T01:53:08.006Z,15.68
2022-08-16T01:56:23.112Z,17.50
2022-08-16T01:59:26.397Z,18.77
2022-08-16T02:02:30.209Z,19.90
2022-08-16T02:05:32.899Z,20.88
2022-08-16T02:08:37.336Z,21.13
2022-08-16T02:11:48.572Z,21.30
2022-08-16T02:14:56.187Z,23.10
2022-08-16T02:18:01.816Z,21.92
2022-08-16T02:21:06.068Z,20.52
2022-08-16T02:24:31.332Z,20.33
2022-08-16T02:27:32.414Z,18.65
2022-08-16T02:30:36.667Z,22.80
2022-08-16T02:33:50.027Z,20.55
2022-08-16T02:36:53.071Z,19.40
2022-08-16T02:39:57.624Z,20.17
2022-08-16T02:43:01.581Z,18.65
2022-08-16T02:46:07.405Z,19.95
2022-08-16T02:49:11.005Z,19.27
2022-08-16T02:52:17.193Z,22.42
2022-08-16T02:55:41.266Z,19.38
2022-08-16T02:58:45.917Z,19.30
2022-08-16T03:01:49.647Z,17.42
2022-08-16T03:04:52.784Z,16.17
2022-08-16T03:07:56.589Z,17.15
2022-08-16T03:10:59.461Z,17.00
2022-08-16T03:14:07.453Z,18.67
2022-08-16T03:17:10.917Z,20.27
2022-08-16T03:20:18.329Z,18.10
2022-08-16T03:23:20.841Z,19.92
2022-08-16T03:26:25.731Z,17.88
2022-08-16T03:29:32.018Z,20.60
2022-08-16T03:32:34.510Z,19.73
2022-08-16T03:35:40.057Z,18.48
2022-08-16T03:38:42.795Z,19.52
2022-08-16T03:41:50.280Z,21.40
2022-08-16T03:45:03.474Z,21.02
2022-08-16T03:48:07.605Z,17.88
2022-08-16T03:51:13.208Z,13.50
2022-08-16T03:54:15.754Z,13.63
2022-08-16T03:57:20.293Z,13.75
2022-08-16T04:00:36.134Z,15.07
2022-08-16T04:03:44.255Z,15.10
2022-08-16T04:06:46.771Z,16.02
2022-08-16T04:09:49.476Z,15.70
2022-08-16T04:12:53.849Z,13.57
2022-08-16T04:15:59.383Z,12.88
2022-08-16T04:19:04.556Z,14.60
2022-08-16T04:22:08.736Z,15.32
2022-08-16T04:25:13.688Z,14.20
2022-08-16T04:28:54.531Z,13.55
2022-08-16T04:31:43.740Z,15.32
2022-08-16T04:34:46.372Z,17.17
2022-08-16T04:37:53.783Z,15.43
2022-08-16T04:40:58.046Z,16.20
2022-08-16T04:44:00.573Z,16.98
2022-08-16T04:47:21.767Z,16.42
2022-08-16T04:50:29.729Z,14.57
2022-08-16T04:53:33.194Z,14.00
2022-08-16T04:56:36.317Z,12.27
2022-08-16T04:59:48.653Z,13.60
2022-08-16T05:02:58.836Z,12.52
2022-08-16T05:06:05.104Z,13.05
2022-08-16T05:09:09.482Z,13.52
2022-08-16T05:12:18.080Z,13.15
2022-08-16T05:15:25.244Z,12.95
2022-08-16T05:18:29.706Z,14.30
2022-08-16T05:21:35.989Z,14.65
2022-08-16T05:24:41.076Z,13.75
2022-08-16T05:27:46.441Z,14.32
2022-08-16T05:30:51.115Z,14.32
2022-08-16T05:33:54.961Z,13.77
2022-08-16T05:36:58.820Z,13.60
2022-08-16T05:40:01.411Z,13.05
2022-08-16T05:43:12.147Z,13.93
2022-08-16T05:46:28.848Z,12.65
2022-08-16T05:49:39.236Z,10.95
2022-08-16T05:52:44.929Z,10.93
2022-08-16T05:55:47.609Z,10.38
2022-08-16T05:58:50.226Z,10.10
2022-08-16T06:01:53.927Z,10.57
2022-08-16T06:04:57.876Z,10.07
2022-08-16T06:08:00.676Z,10.35
2022-08-16T06:11:10.269Z,9.75
2022-08-16T06:14:14.250Z,9.10
2022-08-16T06:17:17.466Z,9.77
2022-08-16T06:20:35.805Z,9.38
2022-08-16T06:23:39.188Z,8.77
2022-08-16T06:26:57.405Z,9.10
2022-08-16T06:30:00.611Z,9.02
2022-08-16T06:33:05.661Z,8.60
2022-08-16T06:36:11.638Z,9.80
2022-08-16T06:39:16.372Z,8.93
2022-08-16T06:42:19.442Z,9.00
2022-08-16T06:45:24.150Z,9.23
2022-08-16T06:48:32.158Z,9.18
2022-08-16T06:51:45.221Z,9.00
2022-08-16T06:54:51.065Z,8.77
2022-08-16T06:57:55.020Z,8.63
2022-08-16T07:00:58.131Z,8.93
2022-08-16T07:04:02.902Z,10.05
2022-08-16T07:07:14.985Z,8.75
2022-08-16T07:10:17.934Z,9.32
2022-08-16T07:13:43.949Z,8.90
2022-08-16T07:16:43.682Z,8.45
2022-08-16T07:20:29.358Z,8.38
2022-08-16T07:23:13.248Z,8.32
2022-08-16T07:26:25.487Z,9.63
2022-08-16T07:29:31.721Z,8.68
2022-08-16T07:32:34.523Z,8.63
2022-08-16T07:35:44.270Z,8.70
2022-08-16T07:38:49.262Z,8.38
2022-08-16T07:41:52.568Z,9.40
2022-08-16T07:44:57.175Z,9.20
2022-08-16T07:47:59.753Z,9.05
2022-08-16T07:51:14.609Z,9.98
2022-08-16T07:54:20.864Z,9.05
2022-08-16T07:57:24.483Z,9.45
2022-08-16T08:00:27.146Z,9.45
2022-08-16T08:03:35.708Z,9.02
2022-08-16T08:06:42.295Z,9.30
2022-08-16T08:09:46.226Z,8.57
2022-08-16T08:12:49.289Z,9.10
2022-08-16T08:15:53.407Z,8.25
2022-08-16T08:19:00.890Z,8.23
2022-08-16T08:22:06.304Z,8.05
2022-08-16T08:25:13.085Z,8.10
2022-08-16T08:28:20.065Z,7.55
2022-08-16T08:31:22.588Z,7.93
2022-08-16T08:34:25.011Z,8.48
2022-08-16T08:37:27.515Z,7.75
2022-08-16T08:40:51.409Z,8.10
2022-08-16T08:43:53.901Z,7.05
2022-08-16T08:47:00.057Z,7.80
2022-08-16T08:50:04.458Z,7.55
2022-08-16T08:53:08.029Z,7.15
2022-08-16T08:56:23.199Z,7.38
2022-08-16T08:59:28.270Z,7.20
2022-08-16T09:02:31.004Z,7.60
2022-08-16T09:05:36.047Z,6.43
2022-08-16T09:08:39.852Z,7.10
2022-08-16T09:12:03.987Z,7.00
2022-08-16T09:15:13.638Z,6.57
2022-08-16T09:18:26.940Z,6.57
2022-08-16T09:21:37.953Z,7.32
2022-08-16T09:24:52.947Z,6.95
2022-08-16T09:28:02.295Z,6.10
2022-08-16T09:31:11.421Z,5.45
2022-08-16T09:34:19.137Z,5.82
2022-08-16T09:37:22.053Z,6.05
2022-08-16T09:40:42.838Z,5.15
2022-08-16T09:43:58.263Z,5.97
2022-08-16T09:47:01.460Z,5.82
2022-08-16T09:50:13.281Z,5.65
2022-08-16T09:53:26.765Z,5.97
2022-08-16T09:56:32.756Z,5.38
2022-08-16T09:59:38.506Z,5.80
2022-08-16T10:02:44.115Z,5.63
2022-08-16T10:05:48.016Z,5.35
2022-08-16T10:08:52.648Z,5.10
2022-08-16T10:12:34.848Z,5.85
2022-08-16T10:15:55.732Z,6.03
2022-08-16T10:19:06.316Z,5.90
2022-08-16T10:22:12.537Z,6.28
2022-08-16T10:27:16.723Z,6.60
2022-08-16T10:28:39.745Z,5.95
2022-08-16T10:31:46.300Z,5.82
2022-08-16T10:34:51.377Z,5.82
2022-08-16T10:37:55.030Z,4.75
2022-08-16T10:40:57.642Z,5.00
2022-08-16T10:44:02.783Z,5.25
2022-08-16T10:47:07.288Z,5.32
2022-08-16T10:50:19.844Z,4.95
2022-08-16T10:53:22.723Z,4.85
2022-08-16T10:56:52.452Z,4.78
2022-08-16T10:59:53.267Z,4.32
2022-08-16T11:03:04.876Z,4.57
2022-08-16T11:06:09.566Z,5.40
2022-08-16T11:09:25.271Z,4.80
2022-08-16T11:12:28.493Z,5.55
2022-08-16T11:15:32.230Z,5.43
2022-08-16T11:19:04.429Z,5.00
2022-08-16T11:22:38.623Z,5.35
2022-08-16T11:32:11.824Z,5.40
2022-08-16T11:35:43.408Z,5.55
2022-08-16T11:38:51.354Z,5.05
2022-08-16T11:41:59.384Z,4.80
2022-08-16T11:45:01.920Z,5.22
2022-08-16T11:48:05.921Z,4.55
2022-08-16T11:51:09.881Z,4.82
2022-08-16T11:54:20.979Z,4.13
2022-08-16T11:57:25.077Z,4.55
2022-08-16T12:00:33.966Z,4.80
2022-08-16T12:03:53.443Z,4.93
2022-08-16T12:06:57.318Z,5.00
2022-08-16T12:09:59.740Z,4.82
2022-08-16T12:13:03.792Z,5.18
2022-08-16T12:16:08.209Z,4.72
2022-08-16T12:19:13.846Z,4.53
2022-08-16T12:22:18.673Z,4.75
2022-08-16T12:25:24.598Z,4.85
2022-08-16T12:28:54.290Z,4.93
2022-08-16T12:32:01.013Z,5.18
2022-08-16T12:35:16.067Z,5.05
2022-08-16T12:38:41.223Z,4.95
2022-08-16T12:41:45.715Z,4.65
2022-08-16T12:44:49.502Z,5.30
2022-08-16T12:48:32.587Z,5.03
2022-08-16T12:51:59.450Z,5.55
2022-08-16T12:55:01.933Z,4.70
2022-08-16T12:58:06.065Z,4.95
2022-08-16T13:01:17.210Z,4.60
2022-08-16T13:04:20.404Z,5.07
2022-08-16T13:07:27.268Z,4.57
2022-08-16T13:10:37.835Z,4.40
2022-08-16T13:13:41.754Z,4.03
2022-08-16T13:16:44.223Z,3.97
2022-08-16T13:23:12.810Z,5.00
2022-08-16T13:26:20.862Z,5.28
2022-08-16T13:29:23.328Z,4.95
2022-08-16T13:32:40.463Z,5.30
2022-08-16T13:35:45.182Z,5.60
2022-08-16T13:38:47.623Z,4.82
2022-08-16T13:41:54.510Z,5.35
2022-08-16T13:44:58.473Z,5.10
2022-08-16T13:48:02.365Z,5.28
2022-08-16T13:51:07.444Z,5.45
2022-08-16T13:54:09.977Z,5.70
2022-08-16T13:57:14.370Z,5.32
2022-08-16T14:00:20.892Z,5.70
2022-08-16T14:03:23.908Z,5.43
2022-08-16T14:06:26.501Z,6.30
2022-08-16T14:09:32.353Z,5.60
2022-08-16T14:12:38.152Z,5.35
2022-08-16T14:15:41.892Z,5.30
2022-08-16T14:18:44.547Z,4.82
2022-08-16T14:21:55.939Z,5.18
2022-08-16T14:28:04.655Z,4.90
2022-08-16T14:31:12.090Z,4.00
2022-08-16T14:34:14.661Z,5.45
2022-08-16T14:37:19.677Z,5.53
2022-08-16T14:40:29.112Z,5.13
2022-08-16T14:43:33.085Z,4.68
2022-08-16T14:46:36.972Z,5.13
2022-08-16T14:49:41.533Z,5.13
2022-08-16T14:52:57.582Z,5.03
2022-08-16T14:56:00.044Z,5.20
2022-08-16T14:59:03.945Z,5.20
2022-08-16T15:02:15.092Z,5.30
2022-08-16T15:05:37.803Z,4.17
2022-08-16T15:08:40.577Z,4.20
2022-08-16T15:11:45.200Z,4.85
2022-08-16T15:14:52.049Z,4.40
2022-08-16T15:17:56.505Z,4.50
2022-08-16T15:21:00.632Z,4.82
2022-08-16T15:24:03.453Z,4.05
2022-08-16T15:27:08.130Z,3.65
2022-08-16T15:30:56.573Z,4.05
2022-08-16T15:33:48.555Z,4.43
2022-08-16T15:36:53.432Z,4.03
2022-08-16T15:39:58.018Z,4.60
2022-08-16T15:43:00.888Z,4.50
2022-08-16T15:46:55.687Z,4.45
2022-08-16T15:49:46.901Z,4.18
2022-08-16T15:56:02.123Z,4.20
2022-08-16T15:59:08.606Z,3.97
2022-08-16T16:02:13.355Z,3.90
2022-08-16T16:05:19.052Z,3.97
2022-08-16T16:08:25.154Z,4.38
2022-08-16T16:11:27.790Z,4.07
2022-08-16T16:14:33.704Z,4.15
2022-08-16T16:17:37.517Z,3.92
2022-08-16T16:20:43.717Z,3.92
2022-08-16T16:23:55.164Z,3.92
2022-08-16T16:27:01.407Z,3.92
2022-08-16T16:30:33.357Z,3.80
2022-08-16T16:33:33.874Z,4.35
2022-08-16T16:36:39.901Z,3.92
2022-08-16T16:39:46.139Z,3.50
2022-08-16T16:42:51.133Z,3.60
2022-08-16T16:45:54.894Z,3.90
2022-08-16T16:48:59.927Z,3.90
2022-08-16T16:52:06.587Z,3.30
2022-08-16T16:55:10.834Z,4.10
2022-08-16T16:58:36.494Z,3.72
2022-08-16T17:01:59.344Z,3.97
2022-08-16T17:05:08.487Z,3.13
2022-08-16T17:08:11.213Z,3.75
2022-08-16T17:11:16.084Z,3.67
2022-08-16T17:14:33.458Z,3.90
2022-08-16T17:17:59.693Z,4.13
2022-08-16T17:21:00.778Z,3.97
2022-08-16T17:24:03.812Z,4.22
2022-08-16T17:27:33.287Z,4.32
2022-08-16T17:30:45.597Z,4.28
2022-08-16T17:33:54.812Z,3.88
2022-08-16T17:36:59.421Z,4.45
2022-08-16T17:40:25.605Z,4.53
2022-08-16T17:43:27.446Z,4.30
2022-08-16T17:46:51.633Z,4.47
2022-08-16T17:49:52.467Z,4.15
2022-08-16T17:52:57.266Z,4.47
2022-08-16T17:56:00.329Z,4.18
2022-08-16T17:59:02.811Z,4.53
2022-08-16T18:02:41.024Z,4.75
2022-08-16T18:05:30.261Z,4.35
2022-08-16T18:08:34.293Z,4.53
2022-08-16T18:11:41.037Z,4.65
2022-08-16T18:14:51.087Z,4.50
2022-08-16T18:21:14.965Z,4.68
2022-08-16T18:24:19.797Z,4.82
2022-08-16T18:27:26.214Z,5.00
2022-08-16T18:30:29.828Z,4.18
2022-08-16T18:33:41.313Z,4.03
2022-08-16T18:36:46.366Z,4.53
2022-08-16T18:39:50.375Z,4.13
2022-08-16T18:42:55.936Z,4.70
2022-08-16T18:45:58.482Z,4.60
2022-08-16T18:49:00.926Z,5.03
2022-08-16T18:52:04.209Z,4.93
2022-08-16T18:55:13.919Z,4.60
2022-08-16T18:58:17.370Z,5.93
2022-08-16T19:01:19.894Z,4.55
2022-08-16T19:04:55.531Z,4.68
2022-08-16T19:07:44.931Z,5.03
2022-08-16T19:10:50.980Z,4.93
2022-08-16T19:13:53.504Z,5.88
2022-08-16T19:16:56.692Z,5.35
2022-08-16T19:19:59.132Z,5.07
2022-08-16T19:23:05.102Z,5.53
2022-08-16T19:26:16.164Z,4.75
2022-08-16T19:29:28.129Z,5.85
2022-08-16T19:32:30.593Z,6.10
2022-08-16T19:35:34.088Z,6.55
2022-08-16T19:38:36.876Z,5.70
2022-08-16T19:41:43.351Z,5.90
2022-08-16T19:44:48.714Z,5.60
2022-08-16T19:47:56.335Z,5.57
2022-08-16T19:50:59.220Z,5.70
2022-08-16T19:54:01.650Z,6.72
2022-08-16T19:57:05.669Z,6.07
2022-08-16T20:00:14.698Z,5.68
2022-08-16T20:03:21.945Z,6.13
2022-08-16T20:06:38.034Z,5.55
2022-08-16T20:09:41.789Z,5.82
2022-08-16T20:12:58.493Z,5.90
2022-08-16T20:16:05.983Z,6.00
2022-08-16T20:19:14.484Z,5.75
2022-08-16T20:22:49.722Z,5.95
2022-08-16T20:25:49.890Z,5.95
2022-08-16T20:28:55.419Z,5.80
2022-08-16T20:31:57.993Z,6.50
2022-08-16T20:35:02.918Z,7.00
2022-08-16T20:38:06.709Z,7.97
2022-08-16T20:41:09.322Z,6.53
2022-08-16T20:44:13.845Z,6.90
2022-08-16T20:47:16.383Z,6.50
2022-08-16T20:50:18.968Z,6.80
2022-08-16T20:53:21.557Z,7.05
2022-08-16T20:56:24.284Z,6.68
2022-08-16T20:59:28.432Z,6.70
2022-08-16T21:02:30.912Z,7.80
2022-08-16T21:05:34.126Z,8.20
2022-08-16T21:08:52.337Z,8.10
2022-08-16T21:11:57.562Z,7.28
2022-08-16T21:15:06.295Z,6.80
2022-08-16T21:18:08.813Z,7.32
2022-08-16T21:21:12.031Z,7.95
2022-08-16T21:24:15.185Z,8.02
2022-08-16T21:27:18.549Z,8.35
2022-08-16T21:30:32.374Z,8.27
2022-08-16T21:33:35.159Z,8.20
2022-08-16T21:36:38.096Z,7.03
2022-08-16T21:39:40.989Z,7.90
2022-08-16T21:42:44.110Z,7.45
2022-08-16T21:45:48.767Z,7.47
2022-08-16T21:48:57.548Z,7.67
2022-08-16T21:52:00.088Z,8.75
2022-08-16T21:55:02.546Z,7.88
2022-08-16T21:58:05.479Z,8.88
2022-08-16T22:01:09.351Z,9.13
2022-08-16T22:04:37.014Z,9.32
2022-08-16T22:07:37.220Z,8.48
2022-08-16T22:11:06.791Z,9.45
2022-08-16T22:14:05.782Z,9.20
2022-08-16T22:17:09.590Z,8.63
2022-08-16T22:20:12.408Z,7.93
2022-08-16T22:23:18.963Z,9.23
2022-08-16T22:26:30.204Z,9.07
2022-08-16T22:29:33.963Z,9.00
2022-08-16T22:32:40.588Z,8.70
2022-08-16T22:35:44.036Z,8.98
2022-08-16T22:38:55.005Z,9.55
2022-08-16T22:41:59.348Z,10.07
2022-08-16T22:45:06.548Z,9.80
2022-08-16T22:48:10.563Z,9.75
2022-08-16T22:51:13.994Z,10.68
2022-08-16T22:54:43.892Z,9.80
2022-08-16T22:57:39.241Z,9.43
2022-08-16T23:00:44.004Z,9.85
2022-08-16T23:03:47.934Z,10.32
2022-08-16T23:06:50.370Z,9.80
2022-08-16T23:09:53.621Z,9.02
2022-08-16T23:12:58.604Z,8.70
2022-08-16T23:16:10.622Z,9.95
2022-08-16T23:19:17.327Z,9.60
2022-08-16T23:22:19.775Z,8.38
2022-08-16T23:25:30.215Z,9.93
2022-08-16T23:28:32.979Z,9.60
2022-08-16T23:31:35.575Z,9.32
2022-08-16T23:34:40.050Z,9.65
2022-08-16T23:37:42.534Z,10.15
2022-08-16T23:40:45.447Z,10.13
2022-08-16T23:43:47.925Z,10.73
2022-08-16T23:46:50.478Z,9.80
2022-08-16T23:50:01.281Z,10.57
2022-08-16T23:53:07.514Z,9.00
2022-08-16T23:56:12.679Z,10.25
2022-08-16T23:59:15.907Z,10.15
